Time;durP1;ratioP1;P1;durP2;ratioP2;P2;SDS_P1;SDS_P2;PMS_P1;PMS_P2;Temp;Humidity;BMP_temperature;BMP_pressure;BME280_temperature;BME280_humidity;BME280_pressure;Samples;Min_cycle;Max_cycle;Signal;HPM_P1;HPM_P2
2023/10/17 00:00:38;;;;;;;16.10;10.82;;;6.60;99.90;;;;;;5033414;28;20194;-60
2023/10/17 00:03:10;;;;;;;12.43;10.85;;;6.60;99.90;;;;;;5032909;28;20247;-60
2023/10/17 00:05:37;;;;;;;11.95;9.88;;;6.60;99.90;;;;;;5033410;28;20232;-60
2023/10/17 00:08:09;;;;;;;12.80;10.20;;;6.50;99.90;;;;;;5033170;28;20672;-60
2023/10/17 00:10:37;;;;;;;14.90;11.95;;;6.50;99.90;;;;;;5033264;28;20187;-61
2023/10/17 00:13:20;;;;;;;14.27;12.00;;;6.50;99.90;;;;;;5033121;28;20231;-60
2023/10/17 00:15:47;;;;;;;14.02;11.38;;;6.50;99.90;;;;;;5033331;28;20187;-60
2023/10/17 00:18:18;;;;;;;16.60;12.85;;;6.40;99.90;;;;;;5033686;28;20207;-60
2023/10/17 00:20:46;;;;;;;20.52;14.00;;;6.40;99.90;;;;;;5033092;28;20187;-61
2023/10/17 00:23:15;;;;;;;17.02;13.10;;;6.30;99.90;;;;;;5033301;28;20198;-60
2023/10/17 00:25:45;;;;;;;18.80;13.20;;;6.30;99.90;;;;;;5033170;28;20680;-61
2023/10/17 00:28:13;;;;;;;19.52;14.70;;;6.20;99.90;;;;;;5035371;28;20178;-61
2023/10/17 00:30:41;;;;;;;20.50;15.15;;;6.20;99.90;;;;;;5037303;28;20290;-61
2023/10/17 00:33:09;;;;;;;18.75;14.25;;;6.20;99.90;;;;;;5037657;28;20199;-60
2023/10/17 00:35:39;;;;;;;17.85;13.85;;;6.10;99.90;;;;;;5037171;28;20203;-61
2023/10/17 00:38:07;;;;;;;18.73;13.52;;;6.10;99.90;;;;;;5037485;28;20226;-59
2023/10/17 00:40:34;;;;;;;19.30;14.05;;;6.10;99.90;;;;;;5037183;28;20328;-60
2023/10/17 00:43:04;;;;;;;16.05;12.52;;;6.00;99.90;;;;;;5036917;28;20631;-61
2023/10/17 00:45:32;;;;;;;22.75;15.02;;;6.00;99.90;;;;;;5036806;28;20229;-60
2023/10/17 00:48:00;;;;;;;17.10;13.23;;;5.90;99.90;;;;;;5036979;28;20195;-60
2023/10/17 00:50:28;;;;;;;18.13;13.70;;;5.90;99.90;;;;;;5036458;28;20575;-60
2023/10/17 00:52:57;;;;;;;19.77;14.00;;;5.90;99.90;;;;;;5036658;28;20218;-60
2023/10/17 00:55:27;;;;;;;20.33;15.13;;;5.80;99.90;;;;;;5036939;28;20216;-60
2023/10/17 00:57:54;;;;;;;21.77;14.52;;;5.80;99.90;;;;;;5036634;28;20318;-60
2023/10/17 01:00:23;;;;;;;15.93;13.80;;;5.70;99.90;;;;;;5036981;28;20205;-60
2023/10/17 01:02:51;;;;;;;18.77;12.68;;;5.60;99.90;;;;;;5036521;28;20234;-60
2023/10/17 01:05:20;;;;;;;17.50;14.27;;;5.60;99.90;;;;;;5036733;28;20202;-60
2023/10/17 01:07:47;;;;;;;19.38;13.60;;;5.50;99.90;;;;;;5036428;28;20676;-60
2023/10/17 01:10:16;;;;;;;18.67;13.00;;;5.50;99.90;;;;;;5036303;28;20217;-60
2023/10/17 01:12:52;;;;;;;16.60;14.00;;;5.50;99.90;;;;;;5036392;28;20308;-60
2023/10/17 01:15:20;;;;;;;16.63;13.38;;;5.40;99.90;;;;;;5036497;28;20617;-60
2023/10/17 01:17:47;;;;;;;18.23;12.80;;;5.40;99.90;;;;;;5036339;28;20280;-60
2023/10/17 01:20:19;;;;;;;20.80;13.55;;;5.40;99.90;;;;;;5036442;28;20214;-58
2023/10/17 01:22:46;;;;;;;20.65;14.32;;;5.30;99.90;;;;;;5036119;28;20222;-60
2023/10/17 01:25:24;;;;;;;18.27;14.07;;;5.30;99.90;;;;;;5036395;28;20252;-60
2023/10/17 01:27:51;;;;;;;16.83;13.35;;;5.30;99.90;;;;;;5036433;28;20261;-60
2023/10/17 01:30:17;;;;;;;19.00;14.32;;;5.30;99.90;;;;;;5036636;28;20210;-61
2023/10/17 01:32:46;;;;;;;21.33;14.13;;;5.20;99.90;;;;;;5037255;28;20226;-58
2023/10/17 01:35:14;;;;;;;20.83;14.55;;;5.30;99.90;;;;;;5036606;28;20198;-60
2023/10/17 01:37:41;;;;;;;21.05;13.70;;;5.20;99.90;;;;;;5036411;28;20215;-59
2023/10/17 01:40:10;;;;;;;19.15;15.48;;;5.20;99.90;;;;;;5036782;28;20256;-61
2023/10/17 01:42:38;;;;;;;17.02;12.55;;;5.20;99.90;;;;;;5037237;28;20225;-60
2023/10/17 01:45:09;;;;;;;18.45;13.20;;;5.10;99.90;;;;;;5036186;28;20206;-60
2023/10/17 01:47:38;;;;;;;17.15;13.23;;;5.10;99.90;;;;;;5036055;28;20588;-60
2023/10/17 01:50:10;;;;;;;17.05;12.18;;;5.10;99.90;;;;;;5035829;28;20247;-60
2023/10/17 01:52:37;;;;;;;20.67;13.30;;;5.10;99.90;;;;;;5035656;28;20233;-61
2023/10/17 01:55:10;;;;;;;14.93;11.68;;;5.00;99.90;;;;;;5035771;28;20290;-60
2023/10/17 01:57:40;;;;;;;19.15;12.60;;;5.00;99.90;;;;;;5035647;28;20584;-60
2023/10/17 02:00:13;;;;;;;14.73;11.93;;;4.90;99.90;;;;;;5035865;28;20202;-61
2023/10/17 02:02:42;;;;;;;18.00;12.35;;;4.90;99.90;;;;;;5035712;28;20289;-60
2023/10/17 02:05:12;;;;;;;22.00;13.25;;;4.90;99.90;;;;;;5035506;28;20221;-61
2023/10/17 02:07:39;;;;;;;17.13;12.38;;;4.80;99.90;;;;;;5035306;28;20669;-59
2023/10/17 02:10:08;;;;;;;22.95;14.15;;;4.80;99.90;;;;;;5035350;28;20202;-60
2023/10/17 02:12:36;;;;;;;22.25;12.75;;;4.80;99.90;;;;;;5035529;28;20269;-59
2023/10/17 02:15:06;;;;;;;16.73;12.63;;;4.80;99.90;;;;;;5043874;28;20211;-60
2023/10/17 02:17:35;;;;;;;22.23;14.35;;;4.80;99.90;;;;;;5035728;28;20218;-60
2023/10/17 02:20:20;;;;;;;23.52;13.43;;;4.70;99.90;;;;;;5035456;28;20203;-59
2023/10/17 02:22:49;;;;;;;21.35;14.40;;;4.70;99.90;;;;;;5041221;28;20225;-59
2023/10/17 02:25:21;;;;;;;19.58;13.68;;;4.70;99.90;;;;;;5036223;28;20206;-59
2023/10/17 02:27:49;;;;;;;17.33;13.05;;;4.70;99.90;;;;;;5035278;28;20560;-60
2023/10/17 02:30:19;;;;;;;21.35;14.15;;;4.70;99.90;;;;;;5037025;28;20214;-60
2023/10/17 02:32:52;;;;;;;24.50;14.02;;;4.60;99.90;;;;;;5041329;28;20226;-60
2023/10/17 02:35:21;;;;;;;18.33;13.23;;;4.60;99.90;;;;;;5036910;28;20186;-60
2023/10/17 02:37:48;;;;;;;21.83;12.65;;;4.60;99.90;;;;;;5039739;28;20249;-60
2023/10/17 02:40:20;;;;;;;19.85;12.27;;;4.60;99.90;;;;;;5036168;28;20212;-60
2023/10/17 02:42:47;;;;;;;19.65;13.20;;;4.60;99.90;;;;;;5034589;28;20253;-59
2023/10/17 02:45:24;;;;;;;23.17;13.23;;;4.50;99.90;;;;;;5034814;28;20202;-59
2023/10/17 02:47:53;;;;;;;17.20;12.57;;;4.50;99.90;;;;;;5034664;28;20179;-60
2023/10/17 02:50:26;;;;;;;18.42;12.15;;;4.50;99.90;;;;;;5034340;28;20202;-60
2023/10/17 02:52:53;;;;;;;18.17;12.32;;;4.50;99.90;;;;;;5034163;28;20313;-60
2023/10/17 02:55:23;;;;;;;18.15;12.15;;;4.50;99.90;;;;;;5034482;28;20202;-60
2023/10/17 02:57:52;;;;;;;23.95;13.63;;;4.50;99.90;;;;;;5034469;28;20286;-60
2023/10/17 03:00:23;;;;;;;17.83;13.15;;;4.40;99.90;;;;;;5033950;28;20672;-60
2023/10/17 03:02:52;;;;;;;16.25;12.02;;;4.40;99.90;;;;;;5034247;28;20733;-60
2023/10/17 03:05:19;;;;;;;17.98;12.60;;;4.40;99.90;;;;;;5034473;28;20202;-60
2023/10/17 03:07:49;;;;;;;20.10;12.45;;;4.30;99.90;;;;;;5034374;28;20206;-59
2023/10/17 03:10:23;;;;;;;23.48;13.88;;;4.30;99.90;;;;;;5034456;28;20194;-59
2023/10/17 03:13:01;;;;;;;17.60;12.45;;;4.30;99.90;;;;;;5034175;28;20233;-59
2023/10/17 03:15:30;;;;;;;20.50;12.93;;;4.30;99.90;;;;;;5034052;28;20652;-60
2023/10/17 03:18:00;;;;;;;22.35;12.10;;;4.30;99.90;;;;;;5034141;28;20218;-59
2023/10/17 03:20:36;;;;;;;15.95;12.45;;;4.20;99.90;;;;;;5033552;28;20265;-60
2023/10/17 03:23:03;;;;;;;17.90;12.85;;;4.20;99.90;;;;;;5033607;28;20221;-60
2023/10/17 03:25:37;;;;;;;17.92;13.15;;;4.20;99.90;;;;;;5033835;28;20224;-60
2023/10/17 03:28:04;;;;;;;19.23;13.65;;;4.20;99.90;;;;;;5033959;28;20602;-60
2023/10/17 03:30:31;;;;;;;23.00;13.52;;;4.20;99.90;;;;;;5034140;28;20222;-60
2023/10/17 03:33:07;;;;;;;22.65;13.80;;;4.20;99.90;;;;;;5034376;28;20244;-60
2023/10/17 03:35:36;;;;;;;17.77;13.50;;;4.10;99.90;;;;;;5035405;28;20187;-59
2023/10/17 03:38:03;;;;;;;22.30;14.18;;;4.10;99.90;;;;;;5037010;28;20260;-59
2023/10/17 03:40:36;;;;;;;20.27;14.00;;;4.10;99.90;;;;;;5037149;28;20232;-59
2023/10/17 03:43:11;;;;;;;17.90;13.52;;;4.10;99.90;;;;;;5036855;28;20249;-59
2023/10/17 03:45:44;;;;;;;20.10;13.85;;;4.10;99.90;;;;;;5036827;28;20613;-60
2023/10/17 03:48:14;;;;;;;19.52;14.10;;;4.00;99.90;;;;;;5037089;28;20210;-59
2023/10/17 03:50:48;;;;;;;21.05;14.35;;;4.00;99.90;;;;;;5040168;28;20245;-59
2023/10/17 03:53:25;;;;;;;23.42;14.63;;;4.00;99.90;;;;;;5038472;28;20710;-59
2023/10/17 03:55:52;;;;;;;29.50;15.30;;;4.00;99.90;;;;;;5039936;28;20190;-59
2023/10/17 03:58:28;;;;;;;26.55;14.63;;;3.90;99.90;;;;;;5038350;28;20723;-59
2023/10/17 04:00:56;;;;;;;22.10;14.73;;;3.90;99.90;;;;;;5037689;28;20182;-60
2023/10/17 04:03:30;;;;;;;32.85;15.13;;;3.90;99.90;;;;;;5033568;28;20207;-60
2023/10/17 04:06:02;;;;;;;27.85;15.13;;;3.90;99.90;;;;;;5033434;28;20198;-59
2023/10/17 04:08:35;;;;;;;53.80;17.52;;;3.90;99.90;;;;;;5033320;28;20254;-60
2023/10/17 04:12:23;;;;;;;56.80;16.70;;;4.00;99.90;;;;;;5131779;27;20588;-59
2023/10/17 04:14:57;;;;;;;47.92;16.88;;;4.10;99.90;;;;;;5132052;28;20203;-60
2023/10/17 04:17:29;;;;;;;34.42;16.42;;;4.10;99.90;;;;;;5131782;28;20197;-59
2023/10/17 04:20:09;;;;;;;58.97;16.52;;;4.20;99.90;;;;;;5131727;28;20187;-59
2023/10/17 04:22:35;;;;;;;44.45;15.98;;;4.20;99.90;;;;;;5131490;28;20279;-60
2023/10/17 04:25:04;;;;;;;43.97;17.35;;;4.30;99.90;;;;;;5131295;28;20199;-60
2023/10/17 04:27:32;;;;;;;51.88;17.10;;;4.30;99.90;;;;;;5131322;28;20221;-59
2023/10/17 04:29:59;;;;;;;27.02;15.52;;;4.40;99.90;;;;;;5131807;28;20230;-58
2023/10/17 04:32:33;;;;;;;75.28;18.70;;;4.50;99.90;;;;;;5132400;27;20229;-59
2023/10/17 04:35:02;;;;;;;72.25;16.75;;;4.50;99.90;;;;;;5132045;28;20274;-60
2023/10/17 04:37:33;;;;;;;58.70;16.58;;;4.60;99.90;;;;;;5131716;28;20199;-60
2023/10/17 04:42:56;;;;;;;46.40;16.67;;;4.60;99.90;;;;;;5130914;27;20610;-60
2023/10/17 04:45:23;;;;;;;60.15;17.60;;;4.60;99.90;;;;;;5131413;28;20754;-58
2023/10/17 04:48:10;;;;;;;45.20;17.50;;;4.60;99.90;;;;;;5130992;28;20283;-60
2023/10/17 04:50:44;;;;;;;40.67;16.98;;;4.60;99.90;;;;;;5131413;28;20229;-59
2023/10/17 04:53:17;;;;;;;40.78;16.27;;;4.60;99.90;;;;;;5130862;28;20179;-58
2023/10/17 04:56:01;;;;;;;41.17;16.25;;;4.60;99.90;;;;;;5130931;28;20199;-59
2023/10/17 04:58:39;;;;;;;68.88;18.48;;;4.60;99.90;;;;;;5131136;28;20179;-59
2023/10/17 05:01:18;;;;;;;75.60;17.65;;;4.70;99.90;;;;;;5131485;28;20708;-59
2023/10/17 05:03:46;;;;;;;47.13;16.27;;;4.70;99.90;;;;;;5131794;28;20187;-60
2023/10/17 05:06:19;;;;;;;41.28;16.25;;;4.70;99.90;;;;;;5130685;28;20202;-58
2023/10/17 05:09:00;;;;;;;91.20;18.33;;;4.70;99.90;;;;;;5130163;28;20655;-60
2023/10/17 06:17:33;;;;;;;21.20;12.50;;;4.90;99.90;;;;;;5120934;28;20179;-59
2023/10/17 06:20:03;;;;;;;37.50;14.00;;;5.00;99.90;;;;;;5121565;28;20203;-59
2023/10/17 06:23:11;;;;;;;36.35;14.07;;;5.00;99.90;;;;;;5122028;28;20215;-59
2023/10/17 06:28:27;;;;;;;18.48;11.88;;;5.00;99.90;;;;;;5120868;28;20225;-59
2023/10/17 06:33:36;;;;;;;65.05;16.05;;;5.00;99.90;;;;;;5118054;28;20667;-59
2023/10/17 06:36:13;;;;;;;27.40;14.90;;;5.00;99.90;;;;;;5119485;28;20207;-59
2023/10/17 06:38:46;;;;;;;25.25;15.15;;;5.00;99.90;;;;;;5119594;27;20287;-59
2023/10/17 06:41:14;;;;;;;33.17;16.17;;;5.00;99.90;;;;;;5119916;28;20272;-59
2023/10/17 06:43:46;;;;;;;35.10;15.95;;;5.10;99.90;;;;;;5118818;28;20199;-58
2023/10/17 06:46:14;;;;;;;33.88;16.75;;;5.20;99.90;;;;;;5118169;28;20195;-59
2023/10/17 06:48:49;;;;;;;34.45;16.23;;;5.30;99.90;;;;;;5117327;28;20207;-56
2023/10/17 06:51:36;;;;;;;32.85;18.08;;;5.30;99.90;;;;;;5115231;28;20247;-58
2023/10/17 06:54:06;;;;;;;56.65;17.88;;;5.40;99.90;;;;;;5115345;28;20186;-60
2023/10/17 06:56:38;;;;;;;35.53;16.45;;;5.40;99.90;;;;;;5114953;28;20195;-60
2023/10/17 06:59:14;;;;;;;40.25;18.75;;;5.40;99.90;;;;;;5115255;28;20180;-59
2023/10/17 07:01:42;;;;;;;55.60;18.70;;;5.50;99.90;;;;;;5114922;28;20226;-60
2023/10/17 07:04:11;;;;;;;52.90;18.40;;;5.60;99.90;;;;;;5115772;28;20245;-59
2023/10/17 07:06:39;;;;;;;47.25;18.77;;;5.60;99.90;;;;;;5117878;28;20195;-59
2023/10/17 07:09:16;;;;;;;35.47;15.40;;;5.70;99.90;;;;;;5121033;28;20208;-59
2023/10/17 07:11:47;;;;;;;30.60;16.80;;;5.80;99.90;;;;;;5122428;28;20226;-59
2023/10/17 07:14:23;;;;;;;23.90;13.43;;;5.80;99.90;;;;;;5121810;28;20192;-58
2023/10/17 07:16:57;;;;;;;47.05;15.15;;;5.80;99.90;;;;;;5119910;28;20180;-60
2023/10/17 07:22:25;;;;;;;34.47;14.50;;;5.90;99.90;;;;;;5055859;28;20209;-59
2023/10/17 07:24:52;;;;;;;27.77;14.50;;;6.00;99.90;;;;;;5053038;28;20293;-60
2023/10/17 07:27:26;;;;;;;35.83;14.45;;;6.00;99.90;;;;;;5082285;28;20287;-59
2023/10/17 07:30:00;;;;;;;35.88;16.10;;;6.10;99.90;;;;;;5116471;28;20636;-59
2023/10/17 07:32:32;;;;;;;26.48;17.83;;;6.10;99.90;;;;;;5116905;28;20223;-59
2023/10/17 07:35:05;;;;;;;28.35;16.58;;;6.10;99.90;;;;;;5117579;28;20214;-60
2023/10/17 07:37:47;;;;;;;34.47;17.75;;;6.10;99.90;;;;;;5116822;28;20189;-57
2023/10/17 07:40:21;;;;;;;33.88;14.48;;;6.10;99.90;;;;;;5116553;28;20240;-59
2023/10/17 07:42:48;;;;;;;28.95;16.30;;;6.10;99.90;;;;;;5114606;28;20319;-60
2023/10/17 07:45:15;;;;;;;25.75;15.77;;;6.20;99.90;;;;;;5115538;28;20226;-60
2023/10/17 07:47:42;;;;;;;36.33;16.52;;;6.20;99.90;;;;;;5115346;28;20204;-59
2023/10/17 07:50:13;;;;;;;30.88;14.90;;;6.30;99.90;;;;;;5115239;28;20739;-58
2023/10/17 07:52:43;;;;;;;32.38;15.25;;;6.30;99.90;;;;;;5115196;28;20224;-59
2023/10/17 07:55:19;;;;;;;28.25;15.45;;;6.40;99.90;;;;;;5116540;28;20192;-60
2023/10/17 07:57:51;;;;;;;31.67;16.10;;;6.40;99.90;;;;;;5116609;28;20187;-60
2023/10/17 08:00:33;;;;;;;28.65;15.55;;;6.40;99.90;;;;;;5115168;28;20233;-59
2023/10/17 08:03:06;;;;;;;20.95;14.88;;;6.50;99.90;;;;;;5116399;28;20300;-60
2023/10/17 08:05:37;;;;;;;23.73;15.30;;;6.60;99.90;;;;;;5116043;28;20200;-60
2023/10/17 08:08:08;;;;;;;22.50;15.50;;;6.80;99.90;;;;;;5117205;28;20606;-60
2023/10/17 08:10:38;;;;;;;21.63;14.05;;;6.90;99.90;;;;;;5116818;28;20216;-59
2023/10/17 08:13:07;;;;;;;18.45;13.15;;;7.10;99.90;;;;;;5118051;28;20223;-59
2023/10/17 08:15:38;;;;;;;22.38;13.75;;;7.20;99.90;;;;;;5118431;28;20235;-60
2023/10/17 08:18:14;;;;;;;18.48;11.73;;;7.20;99.90;;;;;;5116959;28;20188;-60
2023/10/17 08:20:54;;;;;;;17.67;13.07;;;7.20;99.90;;;;;;5115522;28;20253;-60
2023/10/17 08:23:23;;;;;;;19.88;13.15;;;7.30;99.90;;;;;;5116072;28;20207;-60
2023/10/17 08:25:59;;;;;;;17.63;12.70;;;7.30;99.90;;;;;;5117012;28;20199;-59
2023/10/17 08:28:33;;;;;;;13.73;11.40;;;7.30;99.90;;;;;;5115569;28;20201;-60
2023/10/17 08:31:17;;;;;;;15.85;11.38;;;7.40;99.90;;;;;;5114968;28;20184;-59
2023/10/17 08:33:47;;;;;;;16.15;11.48;;;7.40;99.90;;;;;;5114738;28;20208;-60
2023/10/17 08:36:14;;;;;;;14.45;10.80;;;7.50;99.90;;;;;;5114393;28;20201;-59
2023/10/17 08:38:42;;;;;;;15.35;11.60;;;7.50;99.90;;;;;;5114104;28;20295;-59
2023/10/17 08:41:09;;;;;;;11.65;9.75;;;7.60;99.90;;;;;;5113944;28;20270;-60
2023/10/17 08:43:36;;;;;;;16.15;12.35;;;7.60;99.90;;;;;;5113563;28;20763;-59
2023/10/17 08:46:07;;;;;;;16.63;11.35;;;7.70;99.90;;;;;;5114552;28;20229;-59
2023/10/17 08:48:37;;;;;;;13.65;10.73;;;7.70;99.90;;;;;;5114350;28;20671;-59
2023/10/17 08:51:07;;;;;;;15.40;12.18;;;7.80;99.90;;;;;;5114564;28;20295;-60
2023/10/17 08:53:34;;;;;;;15.27;12.20;;;7.80;99.90;;;;;;5113777;28;20239;-59
2023/10/17 08:56:07;;;;;;;14.70;11.90;;;7.80;99.90;;;;;;5113250;28;20565;-59
2023/10/17 08:58:36;;;;;;;17.35;13.07;;;7.90;99.90;;;;;;5118274;28;20190;-59
2023/10/17 09:01:11;;;;;;;17.13;12.10;;;7.80;99.90;;;;;;5117970;28;20230;-60
2023/10/17 09:03:44;;;;;;;16.52;12.02;;;7.90;99.90;;;;;;5119696;28;20209;-60
2023/10/17 09:09:17;;;;;;;14.38;12.10;;;8.00;99.90;;;;;;5119386;28;20245;-60
2023/10/17 09:12:19;;;;;;;14.57;11.43;;;8.10;99.90;;;;;;5118674;28;20227;-59
2023/10/17 09:14:48;;;;;;;14.05;10.93;;;8.30;99.90;;;;;;5118647;28;20194;-59
2023/10/17 09:17:20;;;;;;;16.40;12.68;;;8.50;99.90;;;;;;5119359;28;20196;-59
2023/10/17 09:19:50;;;;;;;14.57;12.38;;;8.70;99.90;;;;;;5120155;28;20211;-60
2023/10/17 09:22:20;;;;;;;16.13;11.75;;;8.60;99.90;;;;;;5119063;28;20216;-60
2023/10/17 09:24:48;;;;;;;13.68;12.32;;;8.60;99.90;;;;;;5120497;28;20200;-61
2023/10/17 09:27:17;;;;;;;14.30;12.40;;;8.60;99.90;;;;;;5120499;28;20661;-60
2023/10/17 09:29:49;;;;;;;13.60;10.95;;;8.60;99.90;;;;;;5120154;28;20204;-61
2023/10/17 09:32:33;;;;;;;14.68;12.25;;;8.50;99.90;;;;;;5119644;28;20221;-60
2023/10/17 09:35:05;;;;;;;13.10;11.65;;;8.50;99.90;;;;;;5119898;28;20222;-60
2023/10/17 09:37:33;;;;;;;14.75;12.25;;;8.60;99.90;;;;;;5119568;28;20199;-59
2023/10/17 09:40:04;;;;;;;17.80;13.80;;;8.50;99.90;;;;;;5119461;28;20200;-60
2023/10/17 09:42:32;;;;;;;13.40;11.93;;;8.50;99.90;;;;;;5119382;28;20302;-59
2023/10/17 09:45:00;;;;;;;14.65;12.43;;;8.50;99.90;;;;;;5122394;28;20208;-59
2023/10/17 09:47:29;;;;;;;12.63;10.85;;;8.50;99.90;;;;;;5120956;28;20200;-59
2023/10/17 09:49:59;;;;;;;13.10;11.05;;;8.60;99.90;;;;;;5120170;28;20290;-60
2023/10/17 09:52:31;;;;;;;16.13;11.30;;;8.60;99.90;;;;;;5118991;28;20545;-60
2023/10/17 09:55:04;;;;;;;14.70;11.10;;;8.70;99.90;;;;;;5119448;28;20180;-60
2023/10/17 09:57:34;;;;;;;11.13;9.93;;;8.80;99.90;;;;;;5117905;28;20191;-60
2023/10/17 10:00:09;;;;;;;11.65;9.73;;;8.90;99.90;;;;;;5117879;28;20195;-59
2023/10/17 10:02:38;;;;;;;11.05;9.32;;;9.00;99.90;;;;;;5116253;28;20237;-60
2023/10/17 10:05:19;;;;;;;15.50;10.60;;;9.10;99.90;;;;;;5116472;28;20200;-59
2023/10/17 10:07:46;;;;;;;12.18;9.68;;;9.00;99.90;;;;;;5116807;28;20425;-59
2023/10/17 10:10:52;;;;;;;11.32;8.80;;;9.10;99.90;;;;;;5116989;28;20245;-60
2023/10/17 10:13:21;;;;;;;10.13;8.87;;;9.20;99.90;;;;;;5116275;28;20204;-60
2023/10/17 10:15:52;;;;;;;9.32;7.88;;;9.20;99.90;;;;;;5116326;28;20537;-60
2023/10/17 10:18:57;;;;;;;11.63;8.30;;;9.30;99.90;;;;;;5116097;28;20210;-60
2023/10/17 10:21:58;;;;;;;10.53;9.50;;;9.50;99.90;;;;;;5116937;27;20487;-62
2023/10/17 10:24:31;;;;;;;10.97;8.23;;;9.60;99.90;;;;;;5116492;28;20429;-61
2023/10/17 10:27:23;;;;;;;10.73;8.20;;;9.60;99.90;;;;;;5120650;28;20437;-60
2023/10/17 10:29:53;;;;;;;12.17;9.57;;;9.60;99.90;;;;;;5124151;28;20425;-60
2023/10/17 10:32:34;;;;;;;11.30;8.90;;;9.60;99.90;;;;;;5122307;28;20482;-60
2023/10/17 10:35:03;;;;;;;10.10;7.63;;;9.60;99.90;;;;;;5123130;28;20425;-58
2023/10/17 10:37:29;;;;;;;10.30;8.50;;;9.70;99.90;;;;;;5123652;28;20441;-60
2023/10/17 10:40:16;;;;;;;10.90;9.67;;;9.70;99.90;;;;;;5121612;28;20441;-60
2023/10/17 10:42:44;;;;;;;11.20;8.70;;;9.80;99.90;;;;;;5120523;28;20973;-61
2023/10/17 10:45:31;;;;;;;12.67;11.17;;;9.90;99.90;;;;;;5118524;28;20448;-60
2023/10/17 10:47:59;;;;;;;13.60;10.80;;;10.00;99.90;;;;;;5120997;28;20426;-60
2023/10/17 10:50:27;;;;;;;15.70;11.20;;;10.00;99.90;;;;;;5121944;28;20486;-59
2023/10/17 10:52:56;;;;;;;19.20;11.17;;;9.80;99.90;;;;;;5123357;28;20492;-60
2023/10/17 10:55:24;;;;;;;14.63;11.07;;;9.70;99.90;;;;;;5122362;28;20441;-61
2023/10/17 10:57:52;;;;;;;14.60;11.17;;;9.80;99.90;;;;;;5120261;28;20854;-58
2023/10/17 11:00:18;;;;;;;12.83;10.73;;;10.00;99.90;;;;;;5121617;28;20441;-60
2023/10/17 11:02:48;;;;;;;13.00;9.97;;;10.00;99.90;;;;;;5118661;28;20471;-60
2023/10/17 11:05:15;;;;;;;14.67;11.10;;;9.90;99.90;;;;;;5117685;28;20954;-60
2023/10/17 11:07:42;;;;;;;13.00;11.23;;;10.00;99.90;;;;;;5118424;28;20445;-60
2023/10/17 11:10:13;;;;;;;13.30;10.60;;;10.00;99.90;;;;;;5120490;28;20495;-61
2023/10/17 11:12:41;;;;;;;11.90;10.03;;;10.00;99.90;;;;;;5122845;28;20513;-59
2023/10/17 11:15:14;;;;;;;13.17;11.30;;;10.10;99.90;;;;;;5121033;28;20468;-60
2023/10/17 11:17:42;;;;;;;15.50;11.63;;;10.20;99.90;;;;;;5119960;28;20447;-59
2023/10/17 11:20:18;;;;;;;15.13;11.10;;;10.30;99.90;;;;;;5118793;28;20456;-60
2023/10/17 11:22:46;;;;;;;13.00;9.90;;;10.40;99.90;;;;;;5121492;28;20799;-60
2023/10/17 11:25:15;;;;;;;12.37;11.07;;;10.40;99.90;;;;;;5119323;28;20499;-59
2023/10/17 11:27:53;;;;;;;14.30;11.47;;;10.40;99.90;;;;;;5117467;28;20495;-58
2023/10/17 11:30:20;;;;;;;15.47;11.10;;;10.40;99.90;;;;;;5119481;28;20860;-59
2023/10/17 11:32:49;;;;;;;16.07;12.37;;;10.30;99.90;;;;;;5118637;28;20999;-60
2023/10/17 11:35:29;;;;;;;14.37;11.33;;;10.30;99.90;;;;;;5119083;28;20445;-59
2023/10/17 11:37:56;;;;;;;18.13;12.87;;;10.30;99.90;;;;;;5117342;28;20422;-59
2023/10/17 11:40:30;;;;;;;16.30;13.20;;;10.20;99.90;;;;;;5116575;28;21025;-60
2023/10/17 11:42:58;;;;;;;18.20;13.40;;;10.20;99.90;;;;;;5115713;28;20458;-59
2023/10/17 11:45:33;;;;;;;15.70;11.07;;;10.20;99.90;;;;;;5116515;28;20446;-61
2023/10/17 11:48:07;;;;;;;14.10;11.00;;;10.30;99.90;;;;;;5116367;28;20425;-59
2023/10/17 11:50:38;;;;;;;14.47;11.30;;;10.30;99.90;;;;;;5117003;28;20421;-59
2023/10/17 11:53:12;;;;;;;14.30;11.60;;;10.30;99.90;;;;;;5116548;28;20584;-61
2023/10/17 11:55:45;;;;;;;13.37;11.10;;;10.30;99.90;;;;;;5115674;28;20449;-60
2023/10/17 11:58:20;;;;;;;13.80;11.33;;;10.30;99.90;;;;;;5116710;28;20445;-60
2023/10/17 12:00:49;;;;;;;16.20;11.90;;;10.20;99.90;;;;;;5115895;28;20438;-58
2023/10/17 12:03:19;;;;;;;15.23;12.00;;;10.10;99.90;;;;;;5114121;28;20999;-60
2023/10/17 12:05:47;;;;;;;14.77;11.73;;;10.10;99.90;;;;;;5114528;28;20442;-60
2023/10/17 12:08:21;;;;;;;16.47;12.87;;;10.10;99.90;;;;;;5114424;28;20859;-60
2023/10/17 12:10:49;;;;;;;18.30;14.57;;;10.10;99.90;;;;;;5119157;28;20470;-60
2023/10/17 12:13:17;;;;;;;17.07;13.37;;;10.10;99.90;;;;;;5124064;28;20491;-60
2023/10/17 12:15:44;;;;;;;15.90;13.03;;;10.10;99.90;;;;;;5119427;28;20463;-59
2023/10/17 12:18:11;;;;;;;15.50;11.03;;;10.20;99.90;;;;;;5117397;28;20495;-60
2023/10/17 12:20:40;;;;;;;15.90;11.23;;;10.20;99.90;;;;;;5118514;28;20451;-61
2023/10/17 12:23:11;;;;;;;17.30;11.27;;;10.10;99.90;;;;;;5117538;28;20442;-60
2023/10/17 12:25:42;;;;;;;13.27;10.70;;;10.20;99.90;;;;;;5115547;28;20422;-61
2023/10/17 12:28:09;;;;;;;14.70;11.63;;;10.20;99.90;;;;;;5116838;28;20422;-61
2023/10/17 12:30:39;;;;;;;13.87;10.23;;;10.30;99.90;;;;;;5116482;28;20445;-60
2023/10/17 12:33:08;;;;;;;16.47;12.40;;;10.30;99.90;;;;;;5118321;28;20488;-59
2023/10/17 12:35:37;;;;;;;16.23;12.40;;;10.20;99.90;;;;;;5119518;28;20437;-59
2023/10/17 12:38:14;;;;;;;17.30;13.30;;;10.20;99.90;;;;;;5118485;28;20962;-59
2023/10/17 12:40:42;;;;;;;19.90;13.00;;;10.20;99.90;;;;;;5118481;28;20835;-59
2023/10/17 12:43:11;;;;;;;19.00;13.30;;;10.20;99.90;;;;;;5118477;28;20459;-60
2023/10/17 12:45:38;;;;;;;16.60;12.40;;;10.30;99.90;;;;;;5118414;28;20529;-60
2023/10/17 12:48:08;;;;;;;19.40;14.27;;;10.50;99.90;;;;;;5118099;28;20438;-60
2023/10/17 12:50:35;;;;;;;16.43;12.70;;;10.70;99.90;;;;;;5119624;28;20498;-60
2023/10/17 12:53:02;;;;;;;21.17;14.03;;;10.90;99.90;;;;;;5117828;28;20477;-60
2023/10/17 12:55:29;;;;;;;17.47;12.80;;;10.80;99.90;;;;;;5117690;28;20444;-61
2023/10/17 12:57:57;;;;;;;16.30;12.97;;;10.80;99.90;;;;;;5117479;28;20995;-60
2023/10/17 13:00:27;;;;;;;16.27;12.60;;;10.70;99.90;;;;;;5121312;28;20453;-60
2023/10/17 13:02:54;;;;;;;14.77;12.30;;;10.70;99.90;;;;;;5123109;28;20461;-61
2023/10/17 13:05:21;;;;;;;17.43;13.50;;;10.70;99.90;;;;;;5126204;28;20549;-61
2023/10/17 13:07:48;;;;;;;18.17;12.37;;;10.70;99.90;;;;;;5123332;28;20452;-60
2023/10/17 13:10:15;;;;;;;18.37;12.10;;;10.70;99.90;;;;;;5127873;28;20482;-60
2023/10/17 13:12:42;;;;;;;16.00;11.73;;;10.70;99.90;;;;;;5130256;28;20482;-61
2023/10/17 13:15:14;;;;;;;21.30;13.53;;;10.80;99.90;;;;;;5130397;28;20450;-61
2023/10/17 13:17:41;;;;;;;16.10;11.63;;;10.80;99.90;;;;;;5130223;28;20418;-60
2023/10/17 13:20:10;;;;;;;17.83;13.57;;;10.90;99.90;;;;;;5130665;28;20444;-61
2023/10/17 13:22:42;;;;;;;16.90;12.57;;;11.00;99.90;;;;;;5129151;28;20469;-61
2023/10/17 13:25:10;;;;;;;15.53;12.53;;;11.00;99.90;;;;;;5131430;28;20455;-60
2023/10/17 13:27:37;;;;;;;17.57;12.03;;;11.00;99.90;;;;;;5130504;28;20445;-60
2023/10/17 13:30:06;;;;;;;13.77;10.80;;;11.00;99.90;;;;;;5130153;28;20556;-61
2023/10/17 13:32:34;;;;;;;14.37;10.97;;;10.90;99.90;;;;;;5128156;28;20473;-61
2023/10/17 13:35:01;;;;;;;14.87;11.70;;;10.90;99.90;;;;;;5125993;28;20450;-61
2023/10/17 13:37:28;;;;;;;16.53;11.03;;;10.90;99.90;;;;;;5126908;28;20441;-59
2023/10/17 13:39:55;;;;;;;14.77;12.33;;;10.80;99.90;;;;;;5126814;28;20460;-61
2023/10/17 13:42:23;;;;;;;15.93;11.90;;;10.80;99.90;;;;;;5124773;28;20469;-61
2023/10/17 13:44:50;;;;;;;15.80;12.00;;;10.80;99.90;;;;;;5124822;28;20533;-60
2023/10/17 13:47:17;;;;;;;17.50;13.20;;;10.80;99.90;;;;;;5125097;28;20441;-60
2023/10/17 13:49:45;;;;;;;14.10;10.37;;;10.70;99.90;;;;;;5127705;28;20448;-60
2023/10/17 13:52:17;;;;;;;20.10;13.00;;;10.70;99.90;;;;;;5128739;28;20457;-62
2023/10/17 13:54:44;;;;;;;16.07;11.73;;;10.70;99.90;;;;;;5125312;28;20622;-61
2023/10/17 13:57:12;;;;;;;15.47;11.30;;;10.60;99.90;;;;;;5129130;28;20510;-61
2023/10/17 13:59:47;;;;;;;16.33;12.53;;;10.70;99.90;;;;;;5124567;27;20454;-62
2023/10/17 14:02:17;;;;;;;15.20;11.00;;;10.70;99.90;;;;;;5130085;28;20468;-61
2023/10/17 14:04:45;;;;;;;14.80;10.93;;;10.70;99.90;;;;;;5127471;28;20446;-61
2023/10/17 14:07:13;;;;;;;14.80;10.90;;;10.70;99.90;;;;;;5127499;28;20448;-61
2023/10/17 14:09:40;;;;;;;12.07;10.00;;;10.70;99.90;;;;;;5126748;28;20469;-60
2023/10/17 14:12:09;;;;;;;12.47;9.90;;;10.60;99.90;;;;;;5128360;28;20473;-61
2023/10/17 14:14:35;;;;;;;11.17;9.40;;;10.50;99.90;;;;;;5128643;28;20481;-61
2023/10/17 14:17:03;;;;;;;11.70;10.27;;;10.20;99.90;;;;;;5129998;28;20449;-61